Arroio Grande, Brazil
Current Conditions -  °F | °C
As of 9:00 PM on Friday 24 Oct 2014 (Local Time) from SBPK Reporting Station
Scattered Clouds Scattered Clouds  
Wind Chill: 68°   Ceiling: Unl
Heat Index: 68°   Visibility: 6mi
Dew Point: 66°   Wind: 5mph
Humidity: 94%   Direction: 120°ESE
Pressure: 29.97"   Gusts: NA
Location:  32.24°S, 53.09°W
Report Text: SBPK 242300Z 12004KT 9999 SCT012 20/19 Q1015
Loading
Personal Weather Stations






























Interactive Weather Map
Tropical Storm Tracking
New forecast layout! Learn more

10-Day Weather Forecast

Advertisements
Track Severe Weather on mobile